createdAt,value
2023-04-07T00:01:25.696Z,74.70
2023-04-07T00:03:52.600Z,74.70
2023-04-07T00:06:19.618Z,74.80
2023-04-07T00:08:46.419Z,74.90
2023-04-07T00:11:13.286Z,75.10
2023-04-07T00:13:40.052Z,75.30
2023-04-07T00:16:07.043Z,75.30
2023-04-07T00:18:33.888Z,75.60
2023-04-07T00:21:00.795Z,75.70
2023-04-07T00:23:27.881Z,76.20
2023-04-07T00:25:54.690Z,76.40
2023-04-07T00:28:21.493Z,76.50
2023-04-07T00:30:48.334Z,76.60
2023-04-07T00:33:15.433Z,76.80
2023-04-07T00:35:42.272Z,77.00
2023-04-07T00:38:09.133Z,77.00
2023-04-07T00:40:36.608Z,77.20
2023-04-07T00:43:03.477Z,77.30
2023-04-07T00:45:30.427Z,77.60
2023-04-07T00:47:58.824Z,77.70
2023-04-07T00:50:25.939Z,77.80
2023-04-07T00:52:54.788Z,78.00
2023-04-07T00:55:21.734Z,78.00
2023-04-07T00:57:48.732Z,78.20
2023-04-07T01:00:15.758Z,78.40
2023-04-07T01:02:54.765Z,78.50
2023-04-07T01:05:42.870Z,78.50
2023-04-07T01:08:20.802Z,78.30
2023-04-07T01:11:05.514Z,78.50
2023-04-07T01:13:37.549Z,78.60
2023-04-07T01:16:13.501Z,78.60
2023-04-07T01:18:41.175Z,78.90
2023-04-07T01:21:15.160Z,79.00
2023-04-07T01:24:05.874Z,79.00
2023-04-07T01:26:37.171Z,79.10
2023-04-07T01:29:36.120Z,79.10
2023-04-07T01:32:06.451Z,79.20
2023-04-07T01:34:34.279Z,79.20
2023-04-07T01:37:02.824Z,79.30
2023-04-07T01:39:30.109Z,79.40
2023-04-07T01:41:58.093Z,79.50
2023-04-07T01:44:27.541Z,79.60
2023-04-07T01:46:55.654Z,79.50
2023-04-07T01:49:23.399Z,79.50
2023-04-07T01:51:51.437Z,79.40
2023-04-07T01:54:18.722Z,79.40
2023-04-07T01:56:46.491Z,79.30
2023-04-07T01:59:13.645Z,79.40
2023-04-07T02:01:41.070Z,79.50
2023-04-07T02:04:17.023Z,79.50
2023-04-07T02:06:52.689Z,79.60
2023-04-07T02:09:21.596Z,79.70
2023-04-07T02:11:51.251Z,79.60
2023-04-07T02:14:21.426Z,79.60
2023-04-07T02:16:49.245Z,79.70
2023-04-07T02:19:16.694Z,79.80
2023-04-07T02:21:45.728Z,80.00
2023-04-07T02:24:12.815Z,80.00
2023-04-07T02:26:39.623Z,80.10
2023-04-07T02:29:06.458Z,80.20
2023-04-07T02:31:33.277Z,80.10
2023-04-07T02:34:00.303Z,80.10
2023-04-07T02:36:27.256Z,80.20
2023-04-07T02:38:54.732Z,80.10
2023-04-07T02:41:21.606Z,80.20
2023-04-07T02:43:48.462Z,80.20
2023-04-07T02:46:16.612Z,80.10
2023-04-07T02:48:43.556Z,80.20
2023-04-07T02:51:10.438Z,80.20
2023-04-07T02:53:37.248Z,80.30
2023-04-07T02:56:04.279Z,80.20
2023-04-07T02:58:31.075Z,80.30
2023-04-07T03:00:57.889Z,80.30
2023-04-07T03:03:24.895Z,80.40
2023-04-07T03:05:51.878Z,80.50
2023-04-07T03:08:18.686Z,80.40
2023-04-07T03:10:45.548Z,80.50
2023-04-07T03:13:16.317Z,80.30
2023-04-07T03:15:43.813Z,80.40
2023-04-07T03:18:11.603Z,80.50
2023-04-07T03:20:38.516Z,80.50
2023-04-07T03:23:05.303Z,80.60
2023-04-07T03:25:32.746Z,80.70
2023-04-07T03:27:59.561Z,80.70
2023-04-07T03:30:26.510Z,80.80
2023-04-07T03:32:56.392Z,80.80
2023-04-07T03:35:23.255Z,80.80
2023-04-07T03:37:50.103Z,80.90
2023-04-07T03:40:17.106Z,80.80
2023-04-07T03:42:43.880Z,80.90
2023-04-07T03:45:10.964Z,80.90
2023-04-07T03:47:37.967Z,80.90
2023-04-07T03:50:05.658Z,80.90
2023-04-07T03:52:32.484Z,81.00
2023-04-07T03:54:59.293Z,81.00
2023-04-07T03:57:26.213Z,81.00
2023-04-07T03:59:53.411Z,81.10
2023-04-07T04:02:20.804Z,81.00
2023-04-07T04:04:47.706Z,81.10
2023-04-07T04:07:14.564Z,81.10
2023-04-07T04:09:41.511Z,81.00
2023-04-07T04:12:08.360Z,81.00
2023-04-07T04:14:35.304Z,80.90
2023-04-07T04:17:02.176Z,81.00
2023-04-07T04:19:32.366Z,81.00
2023-04-07T04:21:59.253Z,80.90
2023-04-07T04:24:26.030Z,81.00
2023-04-07T04:26:52.858Z,80.90
2023-04-07T04:29:19.632Z,80.90
2023-04-07T04:31:46.616Z,80.90
2023-04-07T04:34:13.505Z,81.00
2023-04-07T04:36:41.631Z,81.10
2023-04-07T04:39:08.565Z,81.10
2023-04-07T04:41:35.416Z,81.10
2023-04-07T04:44:02.278Z,81.10
2023-04-07T04:46:29.050Z,81.00
2023-04-07T04:48:56.487Z,81.00
2023-04-07T04:51:23.846Z,81.10
2023-04-07T04:53:51.469Z,81.10
2023-04-07T04:56:18.628Z,81.10
2023-04-07T04:58:48.512Z,81.00
2023-04-07T05:01:15.683Z,81.10
2023-04-07T05:03:42.851Z,81.00
2023-04-07T05:06:09.979Z,81.00
2023-04-07T05:08:37.927Z,81.10
2023-04-07T05:11:04.858Z,81.10
2023-04-07T05:13:31.726Z,81.10
2023-04-07T05:15:58.526Z,81.00
2023-04-07T05:18:25.664Z,81.00
2023-04-07T05:20:52.445Z,81.00
2023-04-07T05:23:19.203Z,81.00
2023-04-07T05:25:46.407Z,80.90
2023-04-07T05:28:13.214Z,80.90
2023-04-07T05:30:40.119Z,80.70
2023-04-07T05:33:07.054Z,80.70
2023-04-07T05:35:33.923Z,80.60
2023-04-07T05:38:00.787Z,80.60
2023-04-07T05:40:30.257Z,80.60
2023-04-07T05:42:57.073Z,80.50
2023-04-07T05:45:24.153Z,80.20
2023-04-07T05:47:51.325Z,80.20
2023-04-07T05:50:18.591Z,79.90
2023-04-07T05:52:46.175Z,79.80
2023-04-07T05:55:13.062Z,79.60
2023-04-07T05:57:40.402Z,79.50
2023-04-07T06:00:08.024Z,79.20
2023-04-07T06:02:35.046Z,79.20
2023-04-07T06:05:01.909Z,79.10
2023-04-07T06:07:28.856Z,78.90
2023-04-07T06:09:55.622Z,78.50
2023-04-07T06:12:22.896Z,78.10
2023-04-07T06:14:56.451Z,78.30
2023-04-07T06:17:24.066Z,78.30
2023-04-07T06:19:51.239Z,78.50
2023-04-07T06:22:18.159Z,78.60
2023-04-07T06:24:44.981Z,78.60
2023-04-07T06:27:11.892Z,78.60
2023-04-07T06:29:38.787Z,78.80
2023-04-07T06:32:06.730Z,78.40
2023-04-07T06:34:33.563Z,78.40
2023-04-07T06:37:01.601Z,78.30
2023-04-07T06:39:28.524Z,78.20
2023-04-07T06:41:56.994Z,77.80
2023-04-07T06:44:24.097Z,77.80
2023-04-07T06:46:53.369Z,76.90
2023-04-07T06:49:20.292Z,77.00
2023-04-07T06:51:47.166Z,76.00
2023-04-07T06:54:14.857Z,76.20
2023-04-07T06:56:42.692Z,75.90
2023-04-07T06:59:10.069Z,75.60
2023-04-07T07:01:37.945Z,74.80
2023-04-07T07:04:08.146Z,74.80
2023-04-07T07:06:35.344Z,73.70
2023-04-07T07:09:03.251Z,74.00
2023-04-07T07:11:30.518Z,73.50
2023-04-07T07:13:57.338Z,73.20
2023-04-07T07:16:24.400Z,72.60
2023-04-07T07:18:51.545Z,73.10
2023-04-07T07:21:19.300Z,73.40
2023-04-07T07:23:46.336Z,71.50
2023-04-07T07:26:13.373Z,71.80
2023-04-07T07:28:40.192Z,72.50
2023-04-07T07:31:14.888Z,71.70
2023-04-07T07:33:46.118Z,71.20
2023-04-07T07:36:13.138Z,70.50
2023-04-07T07:38:40.583Z,69.90
2023-04-07T07:41:07.698Z,69.60
2023-04-07T07:43:34.844Z,68.80
2023-04-07T07:46:01.807Z,68.70
2023-04-07T07:48:28.636Z,68.70
2023-04-07T07:50:57.008Z,67.50
2023-04-07T07:53:24.023Z,67.70
2023-04-07T07:55:51.020Z,67.90
2023-04-07T07:58:17.994Z,67.70
2023-04-07T08:00:44.899Z,67.00
2023-04-07T08:03:11.806Z,66.80
2023-04-07T08:05:38.815Z,67.00
2023-04-07T08:08:05.660Z,66.80
2023-04-07T08:10:32.555Z,67.30
2023-04-07T08:12:59.355Z,66.20
2023-04-07T08:15:26.696Z,66.20
2023-04-07T08:17:54.829Z,66.10
2023-04-07T08:20:24.044Z,66.10
2023-04-07T08:22:51.030Z,66.40
2023-04-07T08:25:18.051Z,66.00
2023-04-07T08:27:44.848Z,66.00
2023-04-07T08:30:11.854Z,64.80
2023-04-07T08:32:40.721Z,64.20
2023-04-07T08:35:07.972Z,64.60
2023-04-07T08:37:36.072Z,64.20
2023-04-07T08:40:03.955Z,63.90
2023-04-07T08:42:33.975Z,63.60
2023-04-07T08:45:06.400Z,63.30
2023-04-07T08:47:35.290Z,63.70
2023-04-07T08:50:10.696Z,63.30
2023-04-07T08:52:53.427Z,63.30
2023-04-07T08:55:20.423Z,63.20
2023-04-07T08:57:47.846Z,61.90
2023-04-07T09:00:15.566Z,62.00
2023-04-07T09:02:47.942Z,62.40
2023-04-07T09:05:14.986Z,61.90
2023-04-07T09:07:43.366Z,62.40
2023-04-07T09:10:10.783Z,62.10
2023-04-07T09:12:38.409Z,61.90
2023-04-07T09:15:08.889Z,61.60
2023-04-07T09:17:35.922Z,61.50
2023-04-07T09:20:03.370Z,61.90
2023-04-07T09:22:39.317Z,61.20
2023-04-07T09:25:19.176Z,61.10
2023-04-07T09:27:59.525Z,60.90
2023-04-07T09:30:27.160Z,61.00
2023-04-07T09:32:54.140Z,61.00
2023-04-07T09:35:23.348Z,61.10
2023-04-07T09:38:09.538Z,60.90
2023-04-07T09:40:37.649Z,60.80
2023-04-07T09:43:06.037Z,60.80
2023-04-07T09:45:36.752Z,60.70
2023-04-07T09:48:08.751Z,60.40
2023-04-07T09:50:49.624Z,60.80
2023-04-07T09:53:17.220Z,60.80
2023-04-07T09:55:44.870Z,60.40
2023-04-07T09:58:15.536Z,60.40
2023-04-07T10:00:42.936Z,60.90
2023-04-07T10:03:10.053Z,60.60
2023-04-07T10:05:38.851Z,60.70
2023-04-07T10:08:06.871Z,60.80
2023-04-07T10:10:34.423Z,60.70
2023-04-07T10:13:04.654Z,60.70
2023-04-07T10:15:31.663Z,60.80
2023-04-07T10:17:59.824Z,58.80
2023-04-07T10:20:28.716Z,60.40
2023-04-07T10:23:02.423Z,60.50
2023-04-07T10:25:29.728Z,60.50
2023-04-07T10:28:08.019Z,60.00
2023-04-07T10:30:36.395Z,59.90
2023-04-07T10:33:03.689Z,59.20
2023-04-07T10:36:03.840Z,60.40
2023-04-07T10:38:32.877Z,59.90
2023-04-07T10:41:00.161Z,60.30
2023-04-07T10:43:44.290Z,60.50
2023-04-07T10:46:11.425Z,60.10
2023-04-07T10:48:38.738Z,60.20
2023-04-07T10:51:05.665Z,60.50
2023-04-07T10:53:32.506Z,60.90
2023-04-07T10:55:59.576Z,60.70
2023-04-07T10:58:33.353Z,60.30
2023-04-07T11:01:00.651Z,60.50
2023-04-07T11:03:29.287Z,61.00
2023-04-07T11:06:13.378Z,60.50
2023-04-07T11:08:42.743Z,60.50
2023-04-07T11:11:11.718Z,60.30
2023-04-07T11:13:42.937Z,60.20
2023-04-07T11:16:10.445Z,60.40
2023-04-07T11:18:37.988Z,60.40
2023-04-07T11:21:06.368Z,61.10
2023-04-07T11:23:44.353Z,61.00
2023-04-07T11:26:13.108Z,61.00
2023-04-07T11:28:52.846Z,60.70
2023-04-07T11:31:25.524Z,59.70
2023-04-07T11:33:55.156Z,60.50
2023-04-07T11:36:48.254Z,60.00
2023-04-07T11:39:22.454Z,60.60
2023-04-07T11:41:51.088Z,57.40
2023-04-07T11:44:18.365Z,59.20
2023-04-07T11:47:02.186Z,58.20
2023-04-07T11:49:29.657Z,58.60
2023-04-07T11:52:03.189Z,60.20
2023-04-07T11:54:44.003Z,58.00
2023-04-07T11:57:13.017Z,57.80
2023-04-07T11:59:41.339Z,59.80
2023-04-07T12:02:08.427Z,57.60
2023-04-07T12:04:37.894Z,56.60
2023-04-07T12:07:09.972Z,58.50
2023-04-07T12:09:38.060Z,57.40
2023-04-07T12:12:07.906Z,58.10
2023-04-07T12:14:36.134Z,58.50
2023-04-07T12:17:03.869Z,60.30
2023-04-07T12:19:36.158Z,59.50
2023-04-07T12:22:03.645Z,58.30
2023-04-07T12:24:32.373Z,58.80
2023-04-07T12:26:59.644Z,58.80
2023-04-07T12:29:26.598Z,59.40
2023-04-07T12:31:53.611Z,57.80
2023-04-07T12:34:20.667Z,58.20
2023-04-07T12:36:48.308Z,55.90
2023-04-07T12:39:16.278Z,57.80
2023-04-07T12:41:44.869Z,57.10
2023-04-07T12:44:11.941Z,57.00
2023-04-07T12:46:38.807Z,57.90
2023-04-07T12:49:06.009Z,56.30
2023-04-07T12:51:35.902Z,54.70
2023-04-07T12:54:02.729Z,55.30
2023-04-07T12:56:29.763Z,55.10
2023-04-07T12:58:56.713Z,54.20
2023-04-07T13:01:23.517Z,56.30
2023-04-07T13:03:51.424Z,54.90
2023-04-07T13:06:19.213Z,54.70
2023-04-07T13:08:46.074Z,57.90
2023-04-07T13:11:12.922Z,54.60
2023-04-07T13:13:39.860Z,55.10
2023-04-07T13:16:06.905Z,56.40
2023-04-07T13:18:33.734Z,54.20
2023-04-07T13:23:39.371Z,54.30
2023-04-07T13:26:09.725Z,54.60
2023-04-07T13:28:36.523Z,54.80
2023-04-07T13:31:03.748Z,53.70
2023-04-07T13:33:30.558Z,52.80
2023-04-07T13:35:57.493Z,50.00
2023-04-07T13:38:24.340Z,51.90
2023-04-07T13:40:51.143Z,51.00
2023-04-07T13:43:19.144Z,50.40
2023-04-07T13:45:46.908Z,47.90
2023-04-07T13:48:13.891Z,49.80
2023-04-07T13:50:41.007Z,49.90
2023-04-07T13:53:08.131Z,51.10
2023-04-07T13:55:34.914Z,49.80
2023-04-07T13:58:01.724Z,48.90
2023-04-07T14:00:28.535Z,50.10
2023-04-07T14:02:56.311Z,51.50
2023-04-07T14:05:23.633Z,51.10
2023-04-07T14:07:51.160Z,51.20
2023-04-07T14:10:18.302Z,49.50
2023-04-07T14:12:45.217Z,51.60
2023-04-07T14:15:12.113Z,51.20
2023-04-07T14:17:38.931Z,51.90
2023-04-07T14:20:06.517Z,52.20
2023-04-07T14:22:33.579Z,52.40
2023-04-07T14:25:00.573Z,52.10
2023-04-07T14:27:31.298Z,52.20
2023-04-07T14:29:59.599Z,53.00
2023-04-07T14:32:29.612Z,52.40
2023-04-07T14:34:59.201Z,53.30
2023-04-07T14:37:28.490Z,51.20
2023-04-07T14:42:26.179Z,51.50
2023-04-07T14:44:53.234Z,51.50
2023-04-07T14:47:20.282Z,53.40
2023-04-07T14:49:47.409Z,52.90
2023-04-07T14:52:14.638Z,51.00
2023-04-07T14:54:41.525Z,50.80
2023-04-07T14:57:08.346Z,50.70
2023-04-07T14:59:35.418Z,51.70
2023-04-07T15:02:02.340Z,51.90
2023-04-07T15:04:29.429Z,52.20
2023-04-07T15:06:56.541Z,52.80
2023-04-07T15:09:23.402Z,52.30
2023-04-07T15:11:50.212Z,52.40
2023-04-07T15:14:17.079Z,52.40
2023-04-07T15:16:47.278Z,53.10
2023-04-07T15:19:14.087Z,52.80
2023-04-07T15:21:41.029Z,52.60
2023-04-07T15:24:07.950Z,53.10
2023-04-07T15:26:34.743Z,53.30
2023-04-07T15:29:01.610Z,52.70
2023-04-07T15:31:30.041Z,53.40
2023-04-07T15:33:57.013Z,53.20
2023-04-07T15:36:23.817Z,49.40
2023-04-07T15:38:50.661Z,50.90
2023-04-07T15:41:17.890Z,51.30
2023-04-07T15:43:44.891Z,50.90
2023-04-07T15:46:11.705Z,51.70
2023-04-07T15:48:38.597Z,51.50
2023-04-07T15:51:05.556Z,50.90
2023-04-07T15:53:32.529Z,50.90
2023-04-07T15:55:59.403Z,51.20
2023-04-07T15:58:26.201Z,51.30
2023-04-07T16:00:53.149Z,52.00
2023-04-07T16:03:20.343Z,52.20
2023-04-07T16:05:47.455Z,53.70
2023-04-07T16:08:14.286Z,53.00
2023-04-07T16:10:41.297Z,54.10
2023-04-07T16:13:08.099Z,53.50
2023-04-07T16:15:40.796Z,52.90
2023-04-07T16:18:11.526Z,52.90
2023-04-07T16:20:38.508Z,53.60
2023-04-07T16:23:05.383Z,53.50
2023-04-07T16:25:32.293Z,54.20
2023-04-07T16:27:59.156Z,52.50
2023-04-07T16:30:26.445Z,53.30
2023-04-07T16:32:53.489Z,53.40
2023-04-07T16:35:20.564Z,53.50
2023-04-07T16:37:47.660Z,53.70
2023-04-07T16:40:14.583Z,55.40
2023-04-07T16:42:41.523Z,55.10
2023-04-07T16:45:08.761Z,56.10
2023-04-07T16:47:35.857Z,56.20
2023-04-07T16:50:04.443Z,56.40
2023-04-07T16:52:31.691Z,57.00
2023-04-07T16:54:59.339Z,57.00
2023-04-07T16:57:26.224Z,57.80
2023-04-07T16:59:53.197Z,57.20
2023-04-07T17:02:20.307Z,57.00
2023-04-07T17:04:47.419Z,56.10
2023-04-07T17:07:14.300Z,56.60
2023-04-07T17:09:41.629Z,56.10
2023-04-07T17:12:08.488Z,58.10
2023-04-07T17:14:35.538Z,57.40
2023-04-07T17:17:02.588Z,58.30
2023-04-07T17:19:29.517Z,58.20
2023-04-07T17:21:56.460Z,59.10
2023-04-07T17:24:23.714Z,58.50
2023-04-07T17:26:50.653Z,59.50
2023-04-07T17:29:17.761Z,58.90
2023-04-07T17:31:44.738Z,58.30
2023-04-07T17:34:11.940Z,59.20
2023-04-07T17:36:39.249Z,59.70
2023-04-07T17:39:06.316Z,59.80
2023-04-07T17:41:34.717Z,59.50
2023-04-07T17:44:01.891Z,60.20
2023-04-07T17:46:29.122Z,60.50
2023-04-07T17:48:59.060Z,60.30
2023-04-07T17:51:27.009Z,60.40
2023-04-07T17:53:54.335Z,60.60
2023-04-07T17:56:21.603Z,60.50
2023-04-07T17:58:48.670Z,60.60
2023-04-07T18:01:17.098Z,60.80
2023-04-07T18:03:44.295Z,60.20
2023-04-07T18:06:16.856Z,60.20
2023-04-07T18:08:47.790Z,60.40
2023-04-07T18:11:15.118Z,60.60
2023-04-07T18:13:41.981Z,60.90
2023-04-07T18:16:11.792Z,61.40
2023-04-07T18:18:38.869Z,61.40
2023-04-07T18:21:07.227Z,61.90
2023-04-07T18:23:34.663Z,62.20
2023-04-07T18:26:06.505Z,62.50
2023-04-07T18:28:34.160Z,62.70
2023-04-07T18:31:03.899Z,62.70
2023-04-07T18:33:33.059Z,63.00
2023-04-07T18:36:07.824Z,63.30
2023-04-07T18:38:36.093Z,63.60
2023-04-07T18:41:03.775Z,64.00
2023-04-07T18:43:31.423Z,64.40
2023-04-07T18:45:58.430Z,65.40
2023-04-07T18:48:26.240Z,66.20
2023-04-07T18:50:54.328Z,67.20
2023-04-07T18:53:23.184Z,68.00
2023-04-07T18:55:51.814Z,69.40
2023-04-07T18:58:19.397Z,70.10
2023-04-07T19:00:47.140Z,71.50
2023-04-07T19:03:14.254Z,72.70
2023-04-07T19:05:41.966Z,75.00
2023-04-07T19:08:09.598Z,76.30
2023-04-07T19:10:36.512Z,77.70
2023-04-07T19:13:04.317Z,78.90
2023-04-07T19:15:38.364Z,79.80
2023-04-07T19:18:05.526Z,80.90
2023-04-07T19:20:33.960Z,81.80
2023-04-07T19:23:01.858Z,82.30
2023-04-07T19:25:29.865Z,82.80
2023-04-07T19:27:57.713Z,83.00
2023-04-07T19:30:24.824Z,83.20
2023-04-07T19:32:52.388Z,83.50
2023-04-07T19:35:19.384Z,83.50
2023-04-07T19:37:47.954Z,83.50
2023-04-07T19:40:15.411Z,83.70
2023-04-07T19:42:42.578Z,83.70
2023-04-07T19:45:10.108Z,83.80
2023-04-07T19:47:38.560Z,83.90
2023-04-07T19:50:06.262Z,84.10
2023-04-07T19:52:33.281Z,84.20
2023-04-07T19:55:01.204Z,84.40
2023-04-07T19:57:29.042Z,84.50
2023-04-07T19:59:56.166Z,84.90
2023-04-07T20:02:23.492Z,85.10
2023-04-07T20:04:51.113Z,85.10
2023-04-07T20:07:18.055Z,85.20
2023-04-07T20:09:45.214Z,85.40
2023-04-07T20:12:12.163Z,85.50
2023-04-07T20:14:39.200Z,85.60
2023-04-07T20:17:06.102Z,85.70
2023-04-07T20:19:33.008Z,85.80
2023-04-07T20:21:59.850Z,85.90
2023-04-07T20:24:27.154Z,85.90
2023-04-07T20:26:53.997Z,86.00
2023-04-07T20:29:22.244Z,86.10
2023-04-07T20:31:49.289Z,86.10
2023-04-07T20:34:16.695Z,86.20
2023-04-07T20:36:43.767Z,86.20
2023-04-07T20:39:10.825Z,86.30
2023-04-07T20:41:37.822Z,86.30
2023-04-07T20:44:04.827Z,86.10
2023-04-07T20:46:33.713Z,86.00
2023-04-07T20:49:00.845Z,86.00
2023-04-07T20:51:28.981Z,86.20
2023-04-07T20:53:55.810Z,86.30
2023-04-07T20:56:23.806Z,86.30
2023-04-07T20:58:50.913Z,86.30
2023-04-07T21:01:17.967Z,86.30
2023-04-07T21:03:45.100Z,86.30
2023-04-07T21:06:12.139Z,86.30
2023-04-07T21:08:39.499Z,86.30
2023-04-07T21:11:06.312Z,86.30
2023-04-07T21:13:33.148Z,86.30
2023-04-07T21:16:01.503Z,86.30
2023-04-07T21:18:28.371Z,86.20
2023-04-07T21:20:57.711Z,86.10
2023-04-07T21:23:24.638Z,86.10
2023-04-07T21:25:51.429Z,86.30
2023-04-07T21:28:18.257Z,86.30
2023-04-07T21:30:45.215Z,86.30
2023-04-07T21:33:13.650Z,86.40
2023-04-07T21:35:40.920Z,86.40
2023-04-07T21:38:07.695Z,86.30
2023-04-07T21:40:34.615Z,86.40
2023-04-07T21:43:01.818Z,86.30
2023-04-07T21:45:29.744Z,86.30
2023-04-07T21:47:56.724Z,86.40
2023-04-07T21:50:24.148Z,86.40
2023-04-07T21:52:51.775Z,86.60
2023-04-07T21:55:18.996Z,86.60
2023-04-07T21:57:46.670Z,86.80
2023-04-07T22:00:14.312Z,86.70
2023-04-07T22:02:41.602Z,86.80
2023-04-07T22:05:09.110Z,86.80
2023-04-07T22:07:36.216Z,86.80
2023-04-07T22:10:03.602Z,86.70
2023-04-07T22:12:30.504Z,86.80
2023-04-07T22:14:57.341Z,86.90
2023-04-07T22:17:24.162Z,86.90
2023-04-07T22:19:50.969Z,86.70
2023-04-07T22:22:17.983Z,86.80
2023-04-07T22:24:44.778Z,87.00
2023-04-07T22:27:11.613Z,87.10
2023-04-07T22:29:38.371Z,87.00
2023-04-07T22:32:05.812Z,87.20
2023-04-07T22:34:32.591Z,87.20
2023-04-07T22:36:59.443Z,87.30
2023-04-07T22:39:26.782Z,87.40
2023-04-07T22:41:53.710Z,87.40
2023-04-07T22:44:20.836Z,87.30
2023-04-07T22:46:47.833Z,87.50
2023-04-07T22:49:14.718Z,87.40
2023-04-07T22:51:41.596Z,87.30
2023-04-07T22:54:08.415Z,87.40
2023-04-07T22:56:35.358Z,87.40
2023-04-07T22:59:05.682Z,87.20
2023-04-07T23:01:33.145Z,87.20
2023-04-07T23:04:00.305Z,87.10
2023-04-07T23:06:28.796Z,87.30
2023-04-07T23:08:56.554Z,87.20
2023-04-07T23:11:23.823Z,87.40
2023-04-07T23:13:51.319Z,87.40
2023-04-07T23:16:18.267Z,87.60
2023-04-07T23:18:45.607Z,87.70
2023-04-07T23:21:13.202Z,87.60
2023-04-07T23:23:40.164Z,87.60
2023-04-07T23:26:07.334Z,87.80
2023-04-07T23:28:34.203Z,88.10
2023-04-07T23:31:02.152Z,88.10
2023-04-07T23:33:31.807Z,88.30
2023-04-07T23:35:58.910Z,88.40
2023-04-07T23:38:26.317Z,88.40
2023-04-07T23:40:53.476Z,88.50
2023-04-07T23:43:20.528Z,88.50
2023-04-07T23:45:47.463Z,88.40
2023-04-07T23:48:15.551Z,88.40
2023-04-07T23:50:42.396Z,88.40
2023-04-07T23:53:09.313Z,88.50
2023-04-07T23:55:36.244Z,88.50
2023-04-07T23:58:03.026Z,88.30
